createdAt,value
2023-04-02T00:00:04.862Z,82.18
2023-04-02T00:02:51.521Z,82.28
2023-04-02T00:05:58.413Z,82.30
2023-04-02T00:08:50.068Z,82.32
2023-04-02T00:11:44.079Z,82.20
2023-04-02T00:14:37.363Z,82.37
2023-04-02T00:17:26.806Z,82.06
2023-04-02T00:20:22.866Z,82.02
2023-04-02T00:22:52.252Z,82.25
2023-04-02T00:25:20.880Z,82.04
2023-04-02T00:28:08.866Z,82.09
2023-04-02T00:30:48.449Z,81.99
2023-04-02T00:33:58.698Z,81.89
2023-04-02T00:36:30.901Z,81.66
2023-04-02T00:39:09.160Z,81.82
2023-04-02T00:42:07.876Z,81.93
2023-04-02T00:44:44.658Z,81.76
2023-04-02T00:47:55.154Z,81.86
2023-04-02T00:50:52.797Z,81.79
2023-04-02T00:54:00.799Z,81.71
2023-04-02T00:56:56.353Z,81.57
2023-04-02T01:00:05.214Z,81.60
2023-04-02T01:05:50.648Z,81.70
2023-04-02T01:08:36.804Z,81.40
2023-04-02T01:11:32.669Z,81.85
2023-04-02T01:14:24.335Z,81.60
2023-04-02T01:17:04.147Z,81.54
2023-04-02T01:20:01.685Z,81.56
2023-04-02T01:22:42.477Z,81.43
2023-04-02T01:25:18.501Z,81.51
2023-04-02T01:27:59.326Z,81.32
2023-04-02T01:30:27.254Z,81.51
2023-04-02T01:32:54.851Z,81.70
2023-04-02T01:35:25.588Z,81.61
2023-04-02T01:38:03.685Z,81.68
2023-04-02T01:40:49.979Z,81.23
2023-04-02T01:43:42.686Z,81.26
2023-04-02T01:46:32.683Z,81.40
2023-04-02T01:49:12.030Z,81.16
2023-04-02T01:51:44.341Z,81.35
2023-04-02T01:54:13.467Z,81.33
2023-04-02T01:56:43.143Z,81.45
2023-04-02T01:59:12.134Z,81.33
2023-04-02T02:02:03.065Z,81.24
2023-04-02T02:04:31.825Z,81.25
2023-04-02T02:07:03.610Z,81.11
2023-04-02T02:09:36.184Z,81.26
2023-04-02T02:12:04.941Z,81.22
2023-04-02T02:14:33.173Z,81.07
2023-04-02T02:17:03.187Z,80.93
2023-04-02T02:19:44.581Z,81.12
2023-04-02T02:22:32.795Z,80.98
2023-04-02T02:25:05.939Z,80.87
2023-04-02T02:27:39.405Z,80.93
2023-04-02T02:30:29.471Z,80.89
2023-04-02T02:33:04.834Z,80.93
2023-04-02T02:35:58.689Z,81.03
2023-04-02T02:38:32.997Z,80.95
2023-04-02T02:41:17.257Z,81.11
2023-04-02T02:43:52.284Z,80.89
2023-04-02T02:46:24.241Z,81.08
2023-04-02T02:48:54.945Z,80.85
2023-04-02T02:51:32.319Z,80.76
2023-04-02T02:54:06.272Z,80.97
2023-04-02T02:56:38.888Z,80.90
2023-04-02T02:59:09.792Z,80.88
2023-04-02T03:01:38.261Z,81.12
2023-04-02T03:04:06.468Z,80.77
2023-04-02T03:06:34.277Z,80.81
2023-04-02T03:09:28.772Z,81.08
2023-04-02T03:12:04.556Z,80.95
2023-04-02T03:14:34.825Z,81.10
2023-04-02T03:17:17.976Z,81.07
2023-04-02T03:19:55.818Z,81.09
2023-04-02T03:22:33.270Z,80.96
2023-04-02T03:25:19.317Z,81.23
2023-04-02T03:27:50.099Z,81.28
2023-04-02T03:30:29.904Z,80.86
2023-04-02T03:33:24.830Z,80.90
2023-04-02T03:36:16.588Z,81.04
2023-04-02T03:39:17.893Z,81.08
2023-04-02T03:42:10.034Z,81.01
2023-04-02T03:44:46.114Z,81.31
2023-04-02T03:47:38.763Z,81.11
2023-04-02T03:50:20.947Z,81.23
2023-04-02T03:52:48.963Z,81.19
2023-04-02T03:55:22.589Z,81.08
2023-04-02T03:58:03.765Z,81.18
2023-04-02T04:00:35.434Z,81.14
2023-04-02T04:03:20.891Z,81.17
2023-04-02T04:06:09.214Z,81.39
2023-04-02T04:08:52.245Z,81.13
2023-04-02T04:11:27.725Z,81.20
2023-04-02T04:14:09.797Z,81.33
2023-04-02T04:16:54.643Z,81.17
2023-04-02T04:19:33.090Z,81.13
2023-04-02T04:22:19.466Z,81.05
2023-04-02T04:24:48.957Z,81.15
2023-04-02T04:27:37.109Z,81.23
2023-04-02T04:30:15.402Z,81.32
2023-04-02T04:32:59.143Z,81.42
2023-04-02T04:35:39.316Z,81.29
2023-04-02T04:38:14.923Z,81.38
2023-04-02T04:40:54.584Z,81.55
2023-04-02T04:43:50.959Z,81.51
2023-04-02T04:46:30.533Z,81.59
2023-04-02T04:48:57.807Z,81.79
2023-04-02T04:51:34.325Z,81.80
2023-04-02T04:54:01.787Z,81.77
2023-04-02T04:56:31.491Z,81.59
2023-04-02T04:59:05.696Z,81.55
2023-04-02T05:01:58.201Z,81.51
2023-04-02T05:04:34.937Z,81.61
2023-04-02T05:07:06.435Z,81.77
2023-04-02T05:09:52.578Z,81.78
2023-04-02T05:12:37.980Z,81.99
2023-04-02T05:15:21.826Z,82.05
2023-04-02T05:18:11.375Z,82.00
2023-04-02T05:20:59.098Z,82.16
2023-04-02T05:23:38.099Z,82.00
2023-04-02T05:26:20.190Z,81.95
2023-04-02T05:29:17.890Z,82.16
2023-04-02T05:31:56.342Z,82.09
2023-04-02T05:34:27.995Z,82.42
2023-04-02T05:36:56.151Z,82.35
2023-04-02T05:39:26.669Z,82.22
2023-04-02T05:42:04.853Z,82.05
2023-04-02T05:44:37.237Z,82.08
2023-04-02T05:47:30.180Z,82.15
2023-04-02T05:50:26.235Z,82.23
2023-04-02T05:53:28.916Z,82.24
2023-04-02T05:56:07.745Z,82.23
2023-04-02T05:58:45.542Z,82.31
2023-04-02T06:01:22.834Z,82.43
2023-04-02T06:04:16.074Z,82.30
2023-04-02T06:07:36.830Z,82.28
2023-04-02T06:10:29.880Z,82.28
2023-04-02T06:13:19.481Z,82.31
2023-04-02T06:15:48.022Z,82.38
2023-04-02T06:18:29.135Z,82.31
2023-04-02T06:21:18.872Z,82.41
2023-04-02T06:24:10.729Z,82.30
2023-04-02T06:26:44.088Z,82.41
2023-04-02T06:29:58.363Z,82.46
2023-04-02T06:32:32.812Z,82.42
2023-04-02T06:35:02.242Z,82.45
2023-04-02T06:37:40.877Z,82.09
2023-04-02T06:40:28.656Z,82.11
2023-04-02T06:43:00.204Z,81.91
2023-04-02T06:45:42.366Z,82.06
2023-04-02T06:48:31.072Z,82.04
2023-04-02T06:51:08.066Z,81.99
2023-04-02T06:53:40.338Z,81.83
2023-04-02T06:56:29.415Z,81.72
2023-04-02T06:58:58.765Z,81.50
2023-04-02T07:01:34.684Z,81.63
2023-04-02T07:04:02.251Z,81.05
2023-04-02T07:06:29.716Z,81.43
2023-04-02T07:09:43.363Z,81.32
2023-04-02T07:12:35.504Z,81.51
2023-04-02T07:15:03.091Z,81.21
2023-04-02T07:18:10.522Z,81.24
2023-04-02T07:20:39.113Z,81.23
2023-04-02T07:23:07.062Z,81.40
2023-04-02T07:25:37.576Z,81.21
2023-04-02T07:28:12.771Z,81.14
2023-04-02T07:31:21.681Z,81.29
2023-04-02T07:34:16.396Z,81.26
2023-04-02T07:37:10.041Z,81.27
2023-04-02T07:39:43.239Z,81.00
2023-04-02T07:42:12.132Z,80.71
2023-04-02T07:44:40.754Z,81.12
2023-04-02T07:47:48.975Z,81.36
2023-04-02T07:50:39.154Z,81.21
2023-04-02T07:53:47.177Z,81.10
2023-04-02T07:56:16.941Z,81.53
2023-04-02T07:59:05.126Z,81.78
2023-04-02T08:02:12.648Z,81.78
2023-04-02T08:05:22.224Z,81.69
2023-04-02T08:08:57.512Z,81.67
2023-04-02T08:12:45.720Z,81.59
2023-04-02T08:16:36.181Z,81.24
2023-04-02T08:20:24.617Z,81.48
2023-04-02T08:24:15.451Z,81.36
2023-04-02T08:28:03.546Z,81.51
2023-04-02T08:31:50.835Z,81.36
2023-04-02T08:35:20.613Z,81.38
2023-04-02T08:37:49.833Z,81.43
2023-04-02T08:41:02.472Z,81.59
2023-04-02T08:44:50.807Z,81.41
2023-04-02T08:48:42.694Z,81.63
2023-04-02T08:52:29.824Z,81.28
2023-04-02T08:56:29.608Z,81.39
2023-04-02T09:00:17.662Z,81.11
2023-04-02T09:04:13.456Z,81.05
2023-04-02T09:07:49.884Z,81.00
2023-04-02T09:11:41.747Z,81.48
2023-04-02T09:15:12.831Z,81.08
2023-04-02T09:19:12.268Z,81.35
2023-04-02T09:23:08.511Z,81.67
2023-04-02T09:27:09.153Z,81.81
2023-04-02T09:30:59.189Z,81.73
2023-04-02T09:35:04.134Z,81.23
2023-04-02T09:39:02.406Z,80.95
2023-04-02T09:42:50.314Z,80.87
2023-04-02T09:46:47.399Z,81.37
2023-04-02T09:50:37.697Z,81.37
2023-04-02T09:54:25.309Z,81.22
2023-04-02T09:58:00.370Z,81.35
2023-04-02T10:02:09.554Z,81.61
2023-04-02T10:05:41.122Z,81.77
2023-04-02T10:09:25.661Z,81.67
2023-04-02T10:12:57.180Z,81.69
2023-04-02T10:16:44.667Z,81.59
2023-04-02T10:20:41.793Z,82.06
2023-04-02T10:24:22.501Z,81.89
2023-04-02T10:28:18.778Z,81.75
2023-04-02T10:32:27.259Z,81.74
2023-04-02T10:36:19.716Z,81.72
2023-04-02T10:39:48.228Z,81.89
2023-04-02T10:43:27.577Z,81.72
2023-04-02T10:47:33.524Z,81.99
2023-04-02T10:51:43.674Z,81.66
2023-04-02T10:55:37.019Z,81.87
2023-04-02T10:59:39.626Z,82.14
2023-04-02T11:03:29.974Z,81.98
2023-04-02T11:07:14.287Z,81.94
2023-04-02T11:10:55.588Z,82.16
2023-04-02T11:14:44.283Z,82.10
2023-04-02T11:18:32.272Z,82.18
2023-04-02T11:22:12.227Z,82.34
2023-04-02T11:25:59.466Z,82.11
2023-04-02T11:29:59.137Z,81.77
2023-04-02T11:33:45.392Z,82.11
2023-04-02T12:05:56.230Z,81.33
2023-04-02T12:08:32.108Z,81.57
2023-04-02T12:11:02.356Z,81.40
2023-04-02T12:13:42.273Z,81.04
2023-04-02T12:16:15.431Z,80.89
2023-04-02T12:18:51.783Z,80.97
2023-04-02T12:21:21.982Z,81.16
2023-04-02T12:23:52.544Z,81.10
2023-04-02T12:26:38.579Z,81.14
2023-04-02T12:29:27.258Z,81.58
2023-04-02T12:33:01.122Z,81.51
2023-04-02T12:36:48.119Z,81.33
2023-04-02T12:40:37.174Z,81.51
2023-04-02T12:44:24.318Z,81.24
2023-04-02T12:48:12.286Z,81.09
2023-04-02T12:51:59.109Z,81.30
2023-04-02T12:55:49.343Z,81.23
2023-04-02T12:59:42.808Z,81.13
2023-04-02T13:03:30.114Z,80.99
2023-04-02T13:07:25.350Z,81.10
2023-04-02T13:11:25.385Z,81.34
2023-04-02T13:15:18.952Z,81.31
2023-04-02T13:19:15.880Z,81.34
2023-04-02T13:23:12.480Z,81.33
2023-04-02T13:27:09.502Z,81.26
2023-04-02T13:30:59.531Z,80.90
2023-04-02T13:34:47.259Z,81.03
2023-04-02T13:38:14.412Z,81.29
2023-04-02T13:42:02.259Z,81.56
2023-04-02T13:45:49.831Z,81.23
2023-04-02T13:49:39.046Z,81.08
2023-04-02T13:53:26.205Z,81.17
2023-04-02T13:57:06.989Z,81.42
2023-04-02T14:00:57.919Z,81.53
2023-04-02T14:04:46.298Z,81.18
2023-04-02T14:08:39.026Z,81.40
2023-04-02T14:12:22.461Z,81.60
2023-04-02T14:16:30.873Z,81.25
2023-04-02T14:20:29.423Z,81.71
2023-04-02T14:24:29.836Z,81.50
2023-04-02T14:28:18.593Z,81.42
2023-04-02T14:32:26.882Z,81.07
2023-04-02T14:36:13.196Z,81.51
2023-04-02T14:40:15.861Z,81.39
2023-04-02T14:44:13.922Z,81.27
2023-04-02T14:47:25.568Z,81.20
2023-04-02T14:50:00.196Z,81.39
2023-04-02T14:52:35.021Z,81.49
2023-04-02T14:55:16.153Z,81.38
2023-04-02T14:58:35.176Z,81.44
2023-04-02T15:02:22.532Z,81.79
2023-04-02T15:05:16.098Z,81.50
2023-04-02T15:08:10.613Z,81.62
2023-04-02T15:10:58.701Z,81.85
2023-04-02T15:14:28.751Z,81.78
2023-04-02T15:17:33.230Z,81.95
2023-04-02T15:20:42.000Z,81.76
2023-04-02T15:23:32.296Z,81.81
2023-04-02T15:26:32.721Z,81.87
2023-04-02T15:29:31.470Z,81.53
2023-04-02T15:32:47.385Z,81.33
2023-04-02T15:35:47.680Z,81.36
2023-04-02T15:39:24.628Z,81.60
2023-04-02T15:42:28.299Z,81.54
2023-04-02T15:45:29.588Z,81.38
2023-04-02T15:48:46.654Z,81.51
2023-04-02T15:52:37.275Z,81.52
2023-04-02T15:56:17.706Z,81.73
2023-04-02T15:59:48.092Z,81.81
2023-04-02T16:04:00.339Z,81.76
2023-04-02T16:07:26.093Z,81.74
2023-04-02T16:10:47.702Z,81.56
2023-04-02T16:14:34.540Z,81.54
2023-04-02T16:17:38.125Z,81.38
2023-04-02T16:20:51.187Z,81.49
2023-04-02T16:23:39.771Z,81.43
2023-04-02T16:26:50.879Z,81.23
2023-04-02T16:29:55.588Z,81.26
2023-04-02T16:33:25.698Z,81.55
2023-04-02T16:36:03.634Z,81.56
2023-04-02T16:39:09.783Z,81.63
2023-04-02T16:43:01.988Z,81.47
2023-04-02T16:46:38.370Z,81.51
2023-04-02T16:49:59.419Z,81.50
2023-04-02T16:53:00.110Z,81.81
2023-04-02T16:56:26.935Z,81.72
2023-04-02T16:59:18.703Z,81.57
2023-04-02T17:02:34.238Z,81.78
2023-04-02T17:05:54.404Z,81.95
2023-04-02T17:08:44.934Z,81.63
2023-04-02T17:12:06.471Z,81.81
2023-04-02T17:15:20.651Z,82.12
2023-04-02T17:18:31.878Z,81.92
2023-04-02T17:21:27.438Z,82.09
2023-04-02T17:24:18.454Z,81.97
2023-04-02T17:27:27.941Z,81.75
2023-04-02T17:31:10.816Z,81.75
2023-04-02T17:34:40.688Z,81.94
2023-04-02T17:37:58.337Z,81.83
2023-04-02T17:40:55.028Z,82.00
2023-04-02T17:44:07.177Z,82.01
2023-04-02T17:47:12.412Z,82.07
2023-04-02T17:49:55.628Z,81.93
2023-04-02T17:52:32.457Z,81.96
2023-04-02T17:55:06.695Z,81.78
2023-04-02T17:58:24.681Z,81.87
2023-04-02T18:01:00.521Z,81.99
2023-04-02T18:03:37.234Z,81.87
2023-04-02T18:06:13.470Z,81.98
2023-04-02T18:08:59.308Z,81.75
2023-04-02T18:11:57.454Z,82.41
2023-04-02T18:15:05.242Z,81.78
2023-04-02T18:17:55.944Z,81.89
2023-04-02T18:20:58.624Z,81.90
2023-04-02T18:24:10.145Z,82.03
2023-04-02T18:27:16.621Z,81.83
2023-04-02T18:30:04.294Z,81.81
2023-04-02T18:32:40.238Z,81.99
2023-04-02T18:35:27.939Z,82.26
2023-04-02T18:38:36.456Z,81.68
2023-04-02T18:41:30.774Z,82.17
2023-04-02T18:44:41.063Z,82.25
2023-04-02T18:47:59.112Z,82.23
2023-04-02T18:51:03.939Z,82.14
2023-04-02T18:53:39.245Z,82.14
2023-04-02T18:56:45.701Z,82.14
2023-04-02T18:59:36.547Z,82.14
2023-04-02T19:02:59.229Z,82.31
2023-04-02T19:06:13.572Z,82.07
2023-04-02T19:09:17.420Z,82.10
2023-04-02T19:12:11.820Z,81.83
2023-04-02T19:14:54.852Z,82.01
2023-04-02T19:17:36.942Z,82.24
2023-04-02T19:20:08.421Z,81.96
2023-04-02T19:23:19.366Z,82.28
2023-04-02T19:26:08.554Z,82.23
2023-04-02T19:29:06.430Z,82.15
2023-04-02T19:31:55.195Z,82.39
2023-04-02T19:34:44.553Z,81.88
2023-04-02T19:38:29.517Z,82.02
2023-04-02T19:41:47.942Z,82.33
2023-04-02T19:44:40.776Z,82.22
2023-04-02T19:47:45.526Z,82.22
2023-04-02T19:50:41.213Z,82.25
2023-04-02T19:53:24.551Z,82.49
2023-04-02T19:56:22.816Z,82.42
2023-04-02T19:59:31.783Z,82.43
2023-04-02T20:02:00.181Z,82.22
2023-04-02T20:04:28.908Z,81.99
2023-04-02T20:07:04.838Z,82.39
2023-04-02T20:09:34.959Z,82.35
2023-04-02T20:12:04.399Z,82.47
2023-04-02T20:14:32.675Z,82.07
2023-04-02T20:17:01.326Z,82.50
2023-04-02T20:19:29.635Z,82.51
2023-04-02T20:21:59.471Z,82.26
2023-04-02T20:24:27.547Z,82.52
2023-04-02T20:26:56.068Z,82.61
2023-04-02T20:29:28.147Z,82.55
2023-04-02T20:31:56.463Z,82.50
2023-04-02T20:34:27.273Z,82.63
2023-04-02T20:36:55.616Z,82.56
2023-04-02T20:39:23.107Z,82.42
2023-04-02T20:41:50.676Z,82.72
2023-04-02T20:44:18.626Z,82.45
2023-04-02T20:46:46.839Z,82.72
2023-04-02T20:49:14.835Z,82.98
2023-04-02T20:51:51.794Z,82.84
2023-04-02T20:54:19.268Z,82.85
2023-04-02T20:56:46.628Z,82.76
2023-04-02T20:59:13.968Z,82.94
2023-04-02T21:01:41.608Z,82.60
2023-04-02T21:04:09.274Z,83.25
2023-04-02T21:06:39.125Z,82.71
2023-04-02T21:09:11.407Z,83.04
2023-04-02T21:11:38.795Z,83.11
2023-04-02T21:14:06.318Z,83.01
2023-04-02T21:16:34.278Z,82.64
2023-04-02T21:19:07.796Z,82.90
2023-04-02T21:21:37.153Z,82.87
2023-04-02T21:24:07.353Z,82.54
2023-04-02T21:26:37.514Z,82.76
2023-04-02T21:29:08.763Z,82.74
2023-04-02T21:31:38.975Z,82.68
2023-04-02T21:34:08.854Z,82.82
2023-04-02T21:36:40.050Z,82.48
2023-04-02T21:39:19.061Z,82.58
2023-04-02T21:41:50.425Z,82.44
2023-04-02T21:44:20.391Z,82.78
2023-04-02T21:46:49.360Z,83.23
2023-04-02T21:49:22.891Z,82.83
2023-04-02T21:51:52.075Z,82.88
2023-04-02T21:54:20.893Z,82.97
2023-04-02T21:56:49.358Z,83.04
2023-04-02T21:59:18.228Z,82.82
2023-04-02T22:01:51.539Z,83.26
2023-04-02T22:04:21.696Z,83.21
2023-04-02T22:06:50.221Z,82.84
2023-04-02T22:09:20.686Z,83.28
2023-04-02T22:11:54.837Z,83.45
2023-04-02T22:14:23.930Z,83.04
2023-04-02T22:16:52.388Z,83.30
2023-04-02T22:19:19.786Z,83.22
2023-04-02T22:21:48.589Z,83.40
2023-04-02T22:24:19.218Z,83.43
2023-04-02T22:26:47.027Z,83.32
2023-04-02T22:29:14.961Z,82.90
2023-04-02T22:31:42.281Z,83.19
2023-04-02T22:34:09.559Z,83.06
2023-04-02T22:36:37.373Z,83.19
2023-04-02T22:39:07.176Z,83.01
2023-04-02T22:41:34.323Z,83.25
2023-04-02T22:44:03.094Z,83.00
2023-04-02T22:46:31.767Z,82.98
2023-04-02T22:48:59.597Z,83.03
2023-04-02T22:51:28.563Z,82.87
2023-04-02T22:53:57.228Z,82.73
2023-04-02T22:56:30.200Z,83.07
2023-04-02T22:58:57.405Z,83.03
2023-04-02T23:01:31.217Z,83.13
2023-04-02T23:03:58.875Z,82.89
2023-04-02T23:06:26.416Z,83.41
2023-04-02T23:08:53.702Z,82.81
2023-04-02T23:11:26.375Z,83.05
2023-04-02T23:13:57.364Z,83.15
2023-04-02T23:16:27.429Z,83.03
2023-04-02T23:18:55.143Z,83.04
2023-04-02T23:21:22.916Z,82.79
2023-04-02T23:23:51.560Z,82.90
2023-04-02T23:26:22.774Z,83.04
2023-04-02T23:28:51.288Z,83.12
2023-04-02T23:31:21.892Z,82.98
2023-04-02T23:33:50.323Z,83.21
2023-04-02T23:36:30.159Z,83.40
2023-04-02T23:39:04.734Z,83.19
2023-04-02T23:41:32.483Z,83.05
2023-04-02T23:44:00.795Z,82.91
2023-04-02T23:46:29.074Z,83.34
2023-04-02T23:48:56.802Z,83.10
2023-04-02T23:51:25.915Z,83.05
2023-04-02T23:53:55.713Z,83.32
2023-04-02T23:56:23.686Z,83.03
2023-04-02T23:58:51.466Z,83.11
